N0308 EYVI-UMKK
Flight info
| Callsign | N0308 |
|---|---|
| Flight time | 0h 34m |
| Altitude | 28000 |
| Route | NEDAM/K0887F280 DCT RILEP RILEP3B |
| Aircraft | C700/M-SBDGHM1RWXY/LB2 |
Departure
| Time | 2026-05-05 09:08 |
|---|---|
| Airport | Vilnius International Airport (EYVI) |
Arrival
| Time | 2026-05-05 09:43 |
|---|---|
| Airport | Khrabrovo Airport (UMKK) |
| Time | Latitude | Longitude | Altitude | Speed | Heading |
|---|---|---|---|---|---|
| 2026-05-05 08:39 | 54.63909 | 25.28327 | 635 ft | 0 kts | 72° |
| 2026-05-05 09:02 | 54.63908 | 25.28323 | 663 ft | 3 kts | 72° |
| 2026-05-05 09:02 | 54.63905 | 25.28309 | 635 ft | 3 kts | 79° |
| 2026-05-05 09:02 | 54.63903 | 25.28264 | 628 ft | 4 kts | 95° |
| 2026-05-05 09:03 | 54.63905 | 25.28231 | 626 ft | 1 kts | 98° |
| 2026-05-05 09:03 | 54.63906 | 25.28225 | 626 ft | 0 kts | 98° |
| 2026-05-05 09:05 | 54.63905 | 25.28227 | 626 ft | 1 kts | 103° |
| 2026-05-05 09:05 | 54.63862 | 25.28260 | 625 ft | 12 kts | 166° |
| 2026-05-05 09:06 | 54.63749 | 25.28301 | 628 ft | 20 kts | 167° |
| 2026-05-05 09:06 | 54.63623 | 25.28353 | 622 ft | 15 kts | 167° |
| 2026-05-05 09:06 | 54.63505 | 25.28326 | 618 ft | 19 kts | 201° |
| 2026-05-05 09:06 | 54.63369 | 25.28230 | 614 ft | 22 kts | 201° |
| 2026-05-05 09:07 | 54.63236 | 25.28139 | 611 ft | 20 kts | 201° |
| 2026-05-05 09:07 | 54.63098 | 25.28043 | 607 ft | 23 kts | 202° |
| 2026-05-05 09:07 | 54.62989 | 25.28059 | 605 ft | 16 kts | 121° |
| 2026-05-05 09:07 | 54.62964 | 25.28188 | 605 ft | 11 kts | 91° |
| 2026-05-05 09:08 | 54.63019 | 25.28301 | 606 ft | 20 kts | 22° |
| 2026-05-05 09:08 | 54.63414 | 25.28563 | 618 ft | 110 kts | 21° |
| 2026-05-05 09:08 | 54.64384 | 25.29270 | 936 ft | 178 kts | 22° |
| 2026-05-05 09:08 | 54.65596 | 25.30169 | 2032 ft | 199 kts | 17° |
| 2026-05-05 09:09 | 54.66948 | 25.30982 | 3388 ft | 210 kts | 17° |
| 2026-05-05 09:09 | 54.68384 | 25.31985 | 4796 ft | 236 kts | 19° |
| 2026-05-05 09:09 | 54.69977 | 25.33128 | 6270 ft | 255 kts | 17° |
| 2026-05-05 09:09 | 54.71646 | 25.34279 | 7859 ft | 264 kts | 16° |
| 2026-05-05 09:10 | 54.73393 | 25.35491 | 9445 ft | 275 kts | 16° |
| 2026-05-05 09:10 | 54.75176 | 25.36737 | 10984 ft | 282 kts | 16° |
| 2026-05-05 09:10 | 54.77091 | 25.37473 | 12534 ft | 279 kts | 355° |
| 2026-05-05 09:10 | 54.79011 | 25.37051 | 14013 ft | 277 kts | 336° |
| 2026-05-05 09:11 | 54.80740 | 25.35588 | 15168 ft | 285 kts | 319° |
| 2026-05-05 09:11 | 54.82156 | 25.33045 | 16043 ft | 303 kts | 300° |
| 2026-05-05 09:11 | 54.82995 | 25.29619 | 17126 ft | 313 kts | 279° |
| 2026-05-05 09:11 | 54.83210 | 25.25919 | 18603 ft | 315 kts | 271° |
| 2026-05-05 09:12 | 54.83265 | 25.22073 | 19756 ft | 322 kts | 270° |
| 2026-05-05 09:12 | 54.83356 | 25.18155 | 20888 ft | 328 kts | 271° |
| 2026-05-05 09:12 | 54.83516 | 25.14173 | 21989 ft | 334 kts | 272° |
| 2026-05-05 09:12 | 54.83675 | 25.10119 | 23061 ft | 339 kts | 272° |
| 2026-05-05 09:13 | 54.83811 | 25.06002 | 24011 ft | 345 kts | 272° |
| 2026-05-05 09:13 | 54.83949 | 25.01833 | 24938 ft | 348 kts | 272° |
| 2026-05-05 09:13 | 54.84088 | 24.97612 | 25840 ft | 352 kts | 272° |
| 2026-05-05 09:13 | 54.84226 | 24.93348 | 26718 ft | 356 kts | 272° |
| 2026-05-05 09:14 | 54.84364 | 24.89026 | 27590 ft | 361 kts | 272° |
| 2026-05-05 09:14 | 54.84503 | 24.84588 | 27910 ft | 380 kts | 272° |
| 2026-05-05 09:14 | 54.84649 | 24.79863 | 27928 ft | 403 kts | 272° |
| 2026-05-05 09:14 | 54.84803 | 24.74869 | 27936 ft | 425 kts | 272° |
| 2026-05-05 09:15 | 54.84964 | 24.69645 | 27927 ft | 438 kts | 272° |
| 2026-05-05 09:15 | 54.85124 | 24.64358 | 27926 ft | 438 kts | 272° |
| 2026-05-05 09:15 | 54.85279 | 24.59103 | 27925 ft | 436 kts | 271° |
| 2026-05-05 09:15 | 54.85431 | 24.53847 | 27924 ft | 435 kts | 271° |
| 2026-05-05 09:16 | 54.85581 | 24.48617 | 27925 ft | 434 kts | 271° |
| 2026-05-05 09:16 | 54.85729 | 24.43382 | 27923 ft | 433 kts | 271° |
| 2026-05-05 09:16 | 54.85874 | 24.38169 | 27920 ft | 433 kts | 271° |
| 2026-05-05 09:16 | 54.86015 | 24.33000 | 27917 ft | 434 kts | 271° |
| 2026-05-05 09:17 | 54.86157 | 24.27761 | 27918 ft | 435 kts | 271° |
| 2026-05-05 09:17 | 54.86296 | 24.22496 | 27917 ft | 436 kts | 271° |
| 2026-05-05 09:17 | 54.86434 | 24.17229 | 27918 ft | 437 kts | 271° |
| 2026-05-05 09:17 | 54.86568 | 24.11965 | 27917 ft | 437 kts | 271° |
| 2026-05-05 09:18 | 54.86701 | 24.06694 | 27918 ft | 437 kts | 271° |
| 2026-05-05 09:18 | 54.86832 | 24.01420 | 27915 ft | 436 kts | 271° |
| 2026-05-05 09:18 | 54.86959 | 23.96185 | 27915 ft | 432 kts | 271° |
| 2026-05-05 09:18 | 54.87084 | 23.90990 | 27914 ft | 431 kts | 271° |
| 2026-05-05 09:19 | 54.87206 | 23.85788 | 27915 ft | 432 kts | 271° |
| 2026-05-05 09:19 | 54.87325 | 23.80573 | 27916 ft | 433 kts | 271° |
| 2026-05-05 09:19 | 54.87444 | 23.75337 | 27917 ft | 434 kts | 271° |
| 2026-05-05 09:19 | 54.87560 | 23.70113 | 27917 ft | 434 kts | 270° |
| 2026-05-05 09:20 | 54.87674 | 23.64872 | 27914 ft | 434 kts | 270° |
| 2026-05-05 09:20 | 54.87786 | 23.59629 | 27914 ft | 435 kts | 270° |
| 2026-05-05 09:20 | 54.87895 | 23.54377 | 27913 ft | 435 kts | 270° |
| 2026-05-05 09:20 | 54.88003 | 23.49128 | 27913 ft | 435 kts | 270° |
| 2026-05-05 09:21 | 54.88109 | 23.43873 | 27922 ft | 435 kts | 270° |
| 2026-05-05 09:21 | 54.88210 | 23.38723 | 27921 ft | 431 kts | 270° |
| 2026-05-05 09:21 | 54.88311 | 23.33414 | 27919 ft | 429 kts | 270° |
| 2026-05-05 09:21 | 54.88406 | 23.28339 | 27919 ft | 430 kts | 270° |
| 2026-05-05 09:22 | 54.88500 | 23.23155 | 27920 ft | 431 kts | 270° |
| 2026-05-05 09:22 | 54.88595 | 23.17927 | 27920 ft | 431 kts | 270° |
| 2026-05-05 09:22 | 54.88686 | 23.12718 | 27920 ft | 432 kts | 270° |
| 2026-05-05 09:22 | 54.88774 | 23.07505 | 27913 ft | 433 kts | 270° |
| 2026-05-05 09:23 | 54.88861 | 23.02273 | 27912 ft | 435 kts | 270° |
| 2026-05-05 09:23 | 54.88947 | 22.97008 | 27914 ft | 435 kts | 270° |
| 2026-05-05 09:23 | 54.89029 | 22.91748 | 27914 ft | 434 kts | 270° |
| 2026-05-05 09:23 | 54.89109 | 22.86517 | 27931 ft | 433 kts | 270° |
| 2026-05-05 09:24 | 54.89187 | 22.81282 | 27924 ft | 432 kts | 270° |
| 2026-05-05 09:24 | 54.89262 | 22.76072 | 27924 ft | 431 kts | 270° |
| 2026-05-05 09:24 | 54.89334 | 22.70926 | 27923 ft | 431 kts | 270° |
| 2026-05-05 09:24 | 54.89405 | 22.65726 | 27923 ft | 431 kts | 269° |
| 2026-05-05 09:25 | 54.89474 | 22.60613 | 27834 ft | 407 kts | 269° |
| 2026-05-05 09:25 | 54.89539 | 22.55797 | 26500 ft | 397 kts | 269° |
| 2026-05-05 09:25 | 54.89593 | 22.51023 | 25173 ft | 393 kts | 269° |
| 2026-05-05 09:25 | 54.89648 | 22.46315 | 23947 ft | 387 kts | 269° |
| 2026-05-05 09:26 | 54.89704 | 22.41669 | 22617 ft | 382 kts | 269° |
| 2026-05-05 09:26 | 54.89756 | 22.37101 | 21365 ft | 375 kts | 269° |
| 2026-05-05 09:26 | 54.89804 | 22.32614 | 20148 ft | 368 kts | 269° |
| 2026-05-05 09:26 | 54.89850 | 22.28201 | 18998 ft | 363 kts | 269° |
| 2026-05-05 09:27 | 54.89894 | 22.23872 | 18320 ft | 348 kts | 269° |
| 2026-05-05 09:27 | 54.89936 | 22.19831 | 18156 ft | 320 kts | 269° |
| 2026-05-05 09:27 | 54.89974 | 22.16302 | 17146 ft | 286 kts | 269° |
| 2026-05-05 09:27 | 54.89998 | 22.12733 | 16368 ft | 292 kts | 269° |
| 2026-05-05 09:28 | 54.90027 | 22.09252 | 15749 ft | 287 kts | 269° |
| 2026-05-05 09:28 | 54.90059 | 22.05799 | 15102 ft | 285 kts | 269° |
| 2026-05-05 09:28 | 54.90088 | 22.02381 | 14495 ft | 282 kts | 269° |
| 2026-05-05 09:28 | 54.90114 | 21.98997 | 13955 ft | 277 kts | 269° |
| 2026-05-05 09:29 | 54.90139 | 21.95696 | 13581 ft | 271 kts | 269° |
| 2026-05-05 09:29 | 54.90164 | 21.92427 | 13212 ft | 270 kts | 269° |
| 2026-05-05 09:29 | 54.90186 | 21.89156 | 12855 ft | 272 kts | 269° |
| 2026-05-05 09:29 | 54.90209 | 21.85905 | 12502 ft | 274 kts | 269° |
| 2026-05-05 09:30 | 54.90231 | 21.82585 | 12142 ft | 274 kts | 269° |
| 2026-05-05 09:30 | 54.90253 | 21.79284 | 11780 ft | 272 kts | 269° |
| 2026-05-05 09:30 | 54.90274 | 21.76007 | 11422 ft | 270 kts | 269° |
| 2026-05-05 09:30 | 54.90293 | 21.72765 | 11066 ft | 267 kts | 269° |
| 2026-05-05 09:31 | 54.90310 | 21.69552 | 10717 ft | 265 kts | 269° |
| 2026-05-05 09:31 | 54.90328 | 21.66361 | 10365 ft | 263 kts | 269° |
| 2026-05-05 09:31 | 54.90345 | 21.63191 | 10022 ft | 262 kts | 269° |
| 2026-05-05 09:31 | 54.90359 | 21.60033 | 9654 ft | 260 kts | 269° |
| 2026-05-05 09:32 | 54.90374 | 21.56904 | 9316 ft | 258 kts | 269° |
| 2026-05-05 09:32 | 54.90386 | 21.53794 | 8977 ft | 256 kts | 268° |
| 2026-05-05 09:32 | 54.90400 | 21.50696 | 8631 ft | 255 kts | 269° |
| 2026-05-05 09:32 | 54.90411 | 21.47614 | 8306 ft | 255 kts | 268° |
| 2026-05-05 09:33 | 54.90422 | 21.44522 | 7961 ft | 256 kts | 269° |
| 2026-05-05 09:33 | 54.90433 | 21.41431 | 7624 ft | 256 kts | 269° |
| 2026-05-05 09:33 | 54.90442 | 21.38381 | 7293 ft | 256 kts | 269° |
| 2026-05-05 09:33 | 54.90451 | 21.35284 | 6953 ft | 255 kts | 269° |
| 2026-05-05 09:34 | 54.90459 | 21.32237 | 6671 ft | 250 kts | 269° |
| 2026-05-05 09:34 | 54.90466 | 21.29219 | 6353 ft | 249 kts | 268° |
| 2026-05-05 09:34 | 54.90472 | 21.26201 | 6012 ft | 249 kts | 269° |
| 2026-05-05 09:34 | 54.90423 | 21.23190 | 5677 ft | 250 kts | 266° |
| 2026-05-05 09:35 | 54.90357 | 21.20157 | 5335 ft | 252 kts | 267° |
| 2026-05-05 09:35 | 54.90242 | 21.14084 | 4631 ft | 249 kts | 266° |
| 2026-05-05 09:35 | 54.90165 | 21.11093 | 4283 ft | 247 kts | 267° |
| 2026-05-05 09:36 | 54.90126 | 21.08103 | 3941 ft | 246 kts | 273° |
| 2026-05-05 09:36 | 54.90744 | 21.05462 | 3599 ft | 236 kts | 309° |
| 2026-05-05 09:36 | 54.92101 | 21.03946 | 3330 ft | 233 kts | 336° |
| 2026-05-05 09:36 | 54.93720 | 21.03577 | 3033 ft | 241 kts | 0° |
| 2026-05-05 09:37 | 54.95396 | 21.03445 | 2714 ft | 242 kts | 350° |
| 2026-05-05 09:37 | 54.96992 | 21.02674 | 2340 ft | 236 kts | 327° |
| 2026-05-05 09:37 | 54.98050 | 21.00599 | 2022 ft | 228 kts | 297° |
| 2026-05-05 09:37 | 54.98468 | 20.98100 | 1986 ft | 206 kts | 273° |
| 2026-05-05 09:38 | 54.98305 | 20.95724 | 1989 ft | 194 kts | 255° |
| 2026-05-05 09:38 | 54.97842 | 20.93549 | 2038 ft | 187 kts | 248° |
| 2026-05-05 09:38 | 54.97334 | 20.91484 | 2015 ft | 187 kts | 247° |
| 2026-05-05 09:38 | 54.96800 | 20.89454 | 2004 ft | 181 kts | 246° |
| 2026-05-05 09:39 | 54.96299 | 20.87480 | 1997 ft | 176 kts | 247° |
| 2026-05-05 09:39 | 54.95792 | 20.85535 | 2005 ft | 177 kts | 245° |
| 2026-05-05 09:39 | 54.95288 | 20.83569 | 2007 ft | 178 kts | 247° |
| 2026-05-05 09:39 | 54.94783 | 20.81609 | 2006 ft | 177 kts | 246° |
| 2026-05-05 09:40 | 54.94276 | 20.79655 | 2003 ft | 177 kts | 247° |
| 2026-05-05 09:40 | 54.93777 | 20.77702 | 1983 ft | 178 kts | 247° |
| 2026-05-05 09:40 | 54.93256 | 20.75709 | 1753 ft | 179 kts | 247° |
| 2026-05-05 09:40 | 54.92810 | 20.73979 | 1535 ft | 141 kts | 248° |
| 2026-05-05 09:41 | 54.92430 | 20.72502 | 1342 ft | 127 kts | 247° |
| 2026-05-05 09:41 | 54.92079 | 20.71149 | 1177 ft | 119 kts | 248° |
| 2026-05-05 09:41 | 54.91752 | 20.69872 | 1024 ft | 115 kts | 248° |
| 2026-05-05 09:41 | 54.91426 | 20.68622 | 866 ft | 113 kts | 249° |
| 2026-05-05 09:42 | 54.91101 | 20.67349 | 727 ft | 117 kts | 248° |
| 2026-05-05 09:42 | 54.90761 | 20.66043 | 558 ft | 120 kts | 250° |
| 2026-05-05 09:42 | 54.90420 | 20.64712 | 398 ft | 122 kts | 250° |
| 2026-05-05 09:42 | 54.90072 | 20.63372 | 240 ft | 123 kts | 250° |
| 2026-05-05 09:43 | 54.89724 | 20.62024 | 82 ft | 123 kts | 249° |
| 2026-05-05 09:43 | 54.89411 | 20.60799 | 22 ft | 80 kts | 245° |
| 2026-05-05 09:43 | 54.89239 | 20.60136 | 24 ft | 49 kts | 248° |
| 2026-05-05 09:43 | 54.89122 | 20.59672 | 26 ft | 36 kts | 244° |
| 2026-05-05 09:44 | 54.89021 | 20.59305 | 28 ft | 33 kts | 232° |
| 2026-05-05 09:44 | 54.88876 | 20.59087 | 27 ft | 0 kts | 214° |
| 2026-05-05 09:44 | 54.88867 | 20.59077 | 27 ft | 8 kts | 214° |
| 2026-05-05 09:44 | 54.88775 | 20.58966 | 27 ft | 24 kts | 219° |
| 2026-05-05 09:45 | 54.88679 | 20.58738 | 28 ft | 15 kts | 184° |
| 2026-05-05 09:45 | 54.88577 | 20.58698 | 28 ft | 18 kts | 213° |
| 2026-05-05 09:45 | 54.88451 | 20.58633 | 28 ft | 12 kts | 175° |
| 2026-05-05 09:45 | 54.88418 | 20.58652 | 28 ft | 0 kts | 152° |